Terminal Aerodrome Forecast
Issued by NWS Cleveland, OH

Home | Current Version | Previous Version | Graphics & Text | Print | Product List | Glossary Off
Versions: 1 2 3 4 5 6 7 8 9 10 11 12 13 14 15 16

000
FTUS41 KCLE 221100
TAFCAK
TAF
KCAK 221130Z 2212/2312 07004KT 5SM BR SKC
     FM221400 14006KT 6SM HZ SCT045 BKN120
     FM221800 14006KT P6SM BKN045
     FM222200 14008KT P6SM OVC035
     FM230200 13010KT 6SM BR VCSH OVC025
     FM230800 13011KT 4SM -RA BR OVC025
     FM231000 14011KT 4SM -RA BR OVC015
     FM231100 15012G24KT 4SM -RA BR OVC007=

USA.gov is the U.S. government's official web portal to all federal, state and local government web resources and services.